createdAt,value
2018-05-03T00:01:12.681Z,6.77
2018-05-03T00:03:41.006Z,6.90
2018-05-03T00:06:08.510Z,5.43
2018-05-03T00:08:36.010Z,6.50
2018-05-03T00:11:03.528Z,5.63
2018-05-03T00:13:31.794Z,6.20
2018-05-03T00:16:00.200Z,6.00
2018-05-03T00:18:27.861Z,8.77
2018-05-03T00:20:55.379Z,7.10
2018-05-03T00:23:22.872Z,6.20
2018-05-03T00:25:50.372Z,5.67
2018-05-03T00:28:17.910Z,6.27
2018-05-03T00:30:45.432Z,7.70
2018-05-03T00:33:13.695Z,6.30
2018-05-03T00:35:41.552Z,6.23
2018-05-03T00:38:09.047Z,5.97
2018-05-03T00:40:36.550Z,8.73
2018-05-03T00:43:04.091Z,5.83
2018-05-03T00:45:31.616Z,5.97
2018-05-03T00:47:59.889Z,6.07
2018-05-03T00:50:28.191Z,6.27
2018-05-03T00:52:55.690Z,6.20
2018-05-03T00:55:23.194Z,5.87
2018-05-03T00:57:50.717Z,7.90
2018-05-03T01:00:18.241Z,6.60
2018-05-03T01:02:45.755Z,7.27
2018-05-03T01:05:13.252Z,6.67
2018-05-03T01:07:40.756Z,6.43
2018-05-03T01:10:09.042Z,6.73
2018-05-03T01:12:37.313Z,6.93
2018-05-03T01:15:05.604Z,8.13
2018-05-03T01:17:33.865Z,6.13
2018-05-03T01:20:02.346Z,6.17
2018-05-03T01:22:29.877Z,5.97
2018-05-03T01:24:57.394Z,6.30
2018-05-03T01:27:24.905Z,6.60
2018-05-03T01:29:52.417Z,6.53
2018-05-03T01:32:19.944Z,7.33
2018-05-03T01:37:51.272Z,7.60
2018-05-03T01:40:18.832Z,9.43
2018-05-03T01:42:46.332Z,7.77
2018-05-03T01:45:13.854Z,9.20
2018-05-03T01:47:41.377Z,9.43
2018-05-03T01:50:08.884Z,9.93
2018-05-03T01:52:36.390Z,10.40
2018-05-03T01:55:03.906Z,10.50
2018-05-03T01:57:31.430Z,11.30
2018-05-03T01:59:58.943Z,11.47
2018-05-03T02:02:26.466Z,11.23
2018-05-03T02:04:53.978Z,13.03
2018-05-03T02:07:21.490Z,13.37
2018-05-03T02:09:48.999Z,13.37
2018-05-03T02:12:17.288Z,13.73
2018-05-03T02:14:45.416Z,14.17
2018-05-03T02:17:12.921Z,14.30
2018-05-03T02:19:40.466Z,13.33
2018-05-03T02:22:08.535Z,12.87
2018-05-03T02:24:36.048Z,12.67
2018-05-03T02:27:03.564Z,11.63
2018-05-03T02:29:31.078Z,11.80
2018-05-03T02:31:59.340Z,10.37
2018-05-03T02:34:27.636Z,11.83
2018-05-03T02:36:55.202Z,9.87
2018-05-03T02:39:22.717Z,9.13
2018-05-03T02:41:50.214Z,9.47
2018-05-03T02:44:18.143Z,9.37
2018-05-03T02:46:45.662Z,10.57
2018-05-03T02:49:13.165Z,10.30
2018-05-03T02:51:40.670Z,10.30
2018-05-03T02:54:08.194Z,10.70
2018-05-03T02:56:36.516Z,8.67
2018-05-03T02:59:15.724Z,6.17
2018-05-03T03:01:55.390Z,5.60
2018-05-03T03:04:40.395Z,6.70
2018-05-03T03:07:32.358Z,4.60
2018-05-03T03:13:35.953Z,8.83
2018-05-03T03:16:21.260Z,5.90
2018-05-03T03:19:06.296Z,5.10
2018-05-03T03:21:51.398Z,5.13
2018-05-03T03:24:36.529Z,4.20
2018-05-03T03:27:21.586Z,4.70
2018-05-03T03:30:00.991Z,5.73
2018-05-03T03:32:40.237Z,7.97
2018-05-03T03:38:33.315Z,7.30
2018-05-03T03:41:12.672Z,5.07
2018-05-03T03:44:03.792Z,6.57
2018-05-03T03:46:31.304Z,7.03
2018-05-03T03:48:58.844Z,6.37
2018-05-03T03:51:27.106Z,6.40
2018-05-03T03:53:55.397Z,5.30
2018-05-03T03:56:22.900Z,8.60
2018-05-03T03:58:50.416Z,6.20
2018-05-03T04:01:17.923Z,5.90
2018-05-03T04:03:45.454Z,5.47
2018-05-03T04:06:12.957Z,6.23
2018-05-03T04:08:40.478Z,12.00
2018-05-03T04:11:07.996Z,9.03
2018-05-03T04:13:36.281Z,6.07
2018-05-03T04:16:03.790Z,8.20
2018-05-03T04:18:42.914Z,7.27
2018-05-03T04:21:22.216Z,7.77
2018-05-03T04:24:11.459Z,7.90
2018-05-03T04:26:38.974Z,8.10
2018-05-03T04:29:06.470Z,7.50
2018-05-03T04:31:34.749Z,13.47
2018-05-03T04:34:03.103Z,5.60
2018-05-03T04:36:30.610Z,6.70
2018-05-03T04:38:58.319Z,7.60
2018-05-03T04:41:25.817Z,6.47
2018-05-03T04:43:53.322Z,6.50
2018-05-03T04:46:20.863Z,9.97
2018-05-03T04:48:48.361Z,7.00
2018-05-03T04:51:15.852Z,8.07
2018-05-03T04:53:43.362Z,7.37
2018-05-03T04:56:10.881Z,6.73
2018-05-03T04:58:38.374Z,9.77
2018-05-03T05:01:05.884Z,9.23
2018-05-03T05:03:33.392Z,6.20
2018-05-03T05:06:00.943Z,12.00
2018-05-03T05:08:28.505Z,6.70
2018-05-03T05:10:56.030Z,8.47
2018-05-03T05:13:23.544Z,6.57
2018-05-03T05:15:51.070Z,8.03
2018-05-03T05:18:18.644Z,8.30
2018-05-03T05:20:46.175Z,8.30
2018-05-03T05:23:13.938Z,6.40
2018-05-03T05:25:41.542Z,6.23
2018-05-03T05:28:09.325Z,8.23
2018-05-03T05:30:36.917Z,8.80
2018-05-03T05:33:04.441Z,9.00
2018-05-03T05:35:32.724Z,8.33
2018-05-03T05:38:01.040Z,10.67
2018-05-03T05:40:28.540Z,5.97
2018-05-03T05:42:56.073Z,8.63
2018-05-03T05:45:23.587Z,6.23
2018-05-03T05:47:52.038Z,8.23
2018-05-03T05:50:20.514Z,7.73
2018-05-03T05:52:48.027Z,6.73
2018-05-03T05:55:15.607Z,7.80
2018-05-03T05:57:43.110Z,5.47
2018-05-03T06:00:10.628Z,8.47
2018-05-03T06:02:38.128Z,10.13
2018-05-03T06:05:05.635Z,9.30
2018-05-03T06:07:33.160Z,8.37
2018-05-03T06:10:00.687Z,5.37
2018-05-03T06:12:28.216Z,7.70
2018-05-03T06:14:55.731Z,9.60
2018-05-03T06:17:23.232Z,6.57
2018-05-03T06:19:50.748Z,8.60
2018-05-03T06:22:18.251Z,5.87
2018-05-03T06:24:45.767Z,7.83
2018-05-03T06:27:13.262Z,7.63
2018-05-03T06:29:40.839Z,7.90
2018-05-03T06:32:08.339Z,5.50
2018-05-03T06:34:35.846Z,7.47
2018-05-03T06:37:03.780Z,6.60
2018-05-03T06:39:31.278Z,8.50
2018-05-03T06:41:58.786Z,8.20
2018-05-03T06:44:26.281Z,5.57
2018-05-03T06:46:53.815Z,9.07
2018-05-03T06:49:21.313Z,11.93
2018-05-03T06:51:48.821Z,5.27
2018-05-03T06:54:16.327Z,6.93
2018-05-03T06:56:43.848Z,6.57
2018-05-03T06:59:11.345Z,6.20
2018-05-03T07:01:38.855Z,4.73
2018-05-03T07:04:06.570Z,7.30
2018-05-03T07:06:34.100Z,5.07
2018-05-03T07:09:01.642Z,7.03
2018-05-03T07:11:29.822Z,7.13
2018-05-03T07:13:57.739Z,7.20
2018-05-03T07:16:26.031Z,4.00
2018-05-03T07:18:54.319Z,9.87
2018-05-03T07:21:21.847Z,6.37
2018-05-03T07:23:50.419Z,8.43
2018-05-03T07:26:18.725Z,6.53
2018-05-03T07:28:46.225Z,6.97
2018-05-03T07:31:13.742Z,5.67
2018-05-03T07:33:41.272Z,4.67
2018-05-03T07:36:09.576Z,7.13
2018-05-03T07:38:37.097Z,8.07
2018-05-03T07:41:04.615Z,6.77
2018-05-03T07:43:33.195Z,6.77
2018-05-03T07:46:01.502Z,4.57
2018-05-03T07:48:29.138Z,6.40
2018-05-03T07:50:56.733Z,8.80
2018-05-03T07:53:24.239Z,3.77
2018-05-03T07:55:51.767Z,6.57
2018-05-03T07:58:20.055Z,5.90
2018-05-03T08:00:47.911Z,6.60
2018-05-03T08:03:15.476Z,6.27
2018-05-03T08:05:43.756Z,5.60
2018-05-03T08:08:12.045Z,6.27
2018-05-03T08:10:39.561Z,6.83
2018-05-03T08:13:07.078Z,5.73
2018-05-03T08:15:34.590Z,5.43
2018-05-03T08:18:03.230Z,4.50
2018-05-03T08:20:30.757Z,6.70
2018-05-03T08:22:58.263Z,3.80
2018-05-03T08:25:26.627Z,4.77
2018-05-03T08:27:54.140Z,5.07
2018-05-03T08:30:22.423Z,10.00
2018-05-03T08:32:49.925Z,5.00
2018-05-03T08:35:17.444Z,3.57
2018-05-03T08:37:44.952Z,5.07
2018-05-03T08:40:12.469Z,5.77
2018-05-03T08:42:40.954Z,6.80
2018-05-03T08:45:08.479Z,5.97
2018-05-03T08:47:36.159Z,5.07
2018-05-03T08:50:03.848Z,7.63
2018-05-03T08:52:31.364Z,5.57
2018-05-03T08:54:59.655Z,4.60
2018-05-03T08:57:27.948Z,5.00
2018-05-03T08:59:55.467Z,5.50
2018-05-03T09:02:22.980Z,5.20
2018-05-03T09:04:50.791Z,4.70
2018-05-03T09:07:18.300Z,6.33
2018-05-03T09:09:45.817Z,4.67
2018-05-03T09:12:13.349Z,6.13
2018-05-03T09:14:40.847Z,4.90
2018-05-03T09:17:08.368Z,7.33
2018-05-03T09:19:35.894Z,3.40
2018-05-03T09:22:03.415Z,4.83
2018-05-03T09:24:30.948Z,4.03
2018-05-03T09:26:59.251Z,6.10
2018-05-03T09:29:26.767Z,3.90
2018-05-03T09:31:54.269Z,6.17
2018-05-03T09:34:21.808Z,4.40
2018-05-03T09:36:50.924Z,8.17
2018-05-03T09:39:18.436Z,6.00
2018-05-03T09:41:46.056Z,4.10
2018-05-03T09:44:13.565Z,4.13
2018-05-03T09:46:41.175Z,5.83
2018-05-03T09:49:08.635Z,4.70
2018-05-03T09:51:36.262Z,3.73
2018-05-03T09:54:04.537Z,4.47
2018-05-03T09:56:32.959Z,5.47
2018-05-03T09:59:00.491Z,8.60
2018-05-03T10:01:28.004Z,4.40
2018-05-03T10:03:55.498Z,4.37
2018-05-03T10:06:23.013Z,5.53
2018-05-03T10:08:51.305Z,4.83
2018-05-03T10:11:19.350Z,7.63
2018-05-03T10:13:46.850Z,4.47
2018-05-03T10:16:15.125Z,6.53
2018-05-03T10:30:41.990Z,4.53
2018-05-03T10:33:09.521Z,3.63
2018-05-03T10:35:37.076Z,5.40
2018-05-03T10:38:05.281Z,6.13
2018-05-03T10:40:33.578Z,3.90
2018-05-03T10:43:01.076Z,6.37
2018-05-03T10:45:28.567Z,6.17
2018-05-03T10:47:56.083Z,3.90
2018-05-03T10:50:23.684Z,4.40
2018-05-03T10:52:51.180Z,4.13
2018-05-03T10:55:19.266Z,3.47
2018-05-03T10:57:46.780Z,3.47
2018-05-03T11:00:15.081Z,4.40
2018-05-03T11:02:42.583Z,4.03
2018-05-03T11:05:10.123Z,3.83
2018-05-03T11:07:37.618Z,7.47
2018-05-03T11:10:05.148Z,5.33
2018-05-03T11:12:32.734Z,3.37
2018-05-03T11:15:01.035Z,4.07
2018-05-03T11:17:29.364Z,3.63
2018-05-03T11:19:57.977Z,4.70
2018-05-03T11:22:26.268Z,4.60
2018-05-03T11:24:54.555Z,3.10
2018-05-03T11:27:22.825Z,4.47
2018-05-03T11:29:51.102Z,2.43
2018-05-03T11:32:19.413Z,5.27
2018-05-03T11:34:46.965Z,5.47
2018-05-03T11:37:14.496Z,4.40
2018-05-03T11:39:42.817Z,3.27
2018-05-03T11:42:11.272Z,5.33
2018-05-03T11:44:38.830Z,3.30
2018-05-03T11:47:06.393Z,6.10
2018-05-03T11:49:35.005Z,5.13
2018-05-03T11:52:02.583Z,5.83
2018-05-03T11:54:30.927Z,4.33
2018-05-03T11:56:59.527Z,3.83
2018-05-03T11:59:27.155Z,8.70
2018-05-03T12:01:54.753Z,2.80
2018-05-03T12:04:23.313Z,3.47
2018-05-03T12:06:50.845Z,3.10
2018-05-03T12:09:18.361Z,2.67
2018-05-03T12:11:45.937Z,7.07
2018-05-03T12:14:14.259Z,4.10
2018-05-03T12:16:41.799Z,4.70
2018-05-03T12:19:09.315Z,4.23
2018-05-03T12:21:36.823Z,4.50
2018-05-03T12:24:04.368Z,3.43
2018-05-03T12:26:31.879Z,4.20
2018-05-03T12:28:59.403Z,4.33
2018-05-03T12:31:26.929Z,4.43
2018-05-03T12:33:55.230Z,3.70
2018-05-03T12:36:22.793Z,3.93
2018-05-03T12:38:50.309Z,4.27
2018-05-03T12:41:17.869Z,3.83
2018-05-03T12:43:45.437Z,4.00
2018-05-03T12:46:13.748Z,3.93
2018-05-03T12:48:41.279Z,3.83
2018-05-03T12:51:08.793Z,6.40
2018-05-03T12:53:36.323Z,4.90
2018-05-03T12:56:03.848Z,6.43
2018-05-03T12:58:31.409Z,5.70
2018-05-03T13:01:00.055Z,3.43
2018-05-03T13:03:28.537Z,5.90
2018-05-03T13:05:56.141Z,5.10
2018-05-03T13:08:23.763Z,5.00
2018-05-03T13:10:52.309Z,5.00
2018-05-03T13:13:19.885Z,4.23
2018-05-03T13:15:49.677Z,6.50
2018-05-03T13:18:18.055Z,3.60
2018-05-03T13:20:46.029Z,5.60
2018-05-03T13:23:13.623Z,10.70
2018-05-03T13:25:41.181Z,3.57
2018-05-03T13:28:08.747Z,5.07
2018-05-03T13:30:36.277Z,5.03
2018-05-03T13:33:03.972Z,6.63
2018-05-03T13:35:31.494Z,6.40
2018-05-03T13:37:59.017Z,4.00
2018-05-03T13:40:26.541Z,3.03
2018-05-03T13:42:54.069Z,5.70
2018-05-03T13:45:21.627Z,3.40
2018-05-03T13:47:49.135Z,3.17
2018-05-03T13:50:17.423Z,3.90
2018-05-03T13:52:45.713Z,2.47
2018-05-03T13:55:13.270Z,5.43
2018-05-03T13:57:40.801Z,5.37
2018-05-03T14:00:09.110Z,3.80
2018-05-03T14:02:36.657Z,5.03
2018-05-03T14:05:04.187Z,4.53
2018-05-03T14:07:31.783Z,3.57
2018-05-03T14:09:59.327Z,4.57
2018-05-03T14:12:27.624Z,5.53
2018-05-03T14:14:55.188Z,3.40
2018-05-03T14:17:22.751Z,2.73
2018-05-03T14:19:50.273Z,6.30
2018-05-03T14:22:17.862Z,4.67
2018-05-03T14:24:45.367Z,3.90
2018-05-03T14:27:14.439Z,5.90
2018-05-03T14:29:41.957Z,4.43
2018-05-03T14:32:09.497Z,2.87
2018-05-03T14:34:38.215Z,4.00
2018-05-03T14:37:05.680Z,3.90
2018-05-03T14:39:33.173Z,3.83
2018-05-03T14:42:00.728Z,5.53
2018-05-03T14:44:28.265Z,3.90
2018-05-03T14:46:55.788Z,4.27
2018-05-03T14:49:23.345Z,5.17
2018-05-03T14:51:51.655Z,3.03
2018-05-03T14:54:19.216Z,5.80
2018-05-03T14:56:46.744Z,5.93
2018-05-03T14:59:14.276Z,4.87
2018-05-03T15:01:41.808Z,5.57
2018-05-03T15:04:09.890Z,5.03
2018-05-03T15:06:37.493Z,4.10
2018-05-03T15:09:05.762Z,3.70
2018-05-03T15:11:33.286Z,6.60
2018-05-03T15:14:00.843Z,7.10
2018-05-03T15:16:28.380Z,6.93
2018-05-03T15:18:56.104Z,9.57
2018-05-03T15:21:24.419Z,6.43
2018-05-03T15:23:51.987Z,6.40
2018-05-03T15:26:19.545Z,6.20
2018-05-03T15:28:47.211Z,4.40
2018-05-03T15:31:14.721Z,5.20
2018-05-03T15:33:42.237Z,5.83
2018-05-03T15:36:09.795Z,7.53
2018-05-03T15:38:37.332Z,6.33
2018-05-03T15:41:04.861Z,3.87
2018-05-03T15:43:32.411Z,5.83
2018-05-03T15:45:59.935Z,6.57
2018-05-03T15:48:27.556Z,20.77
2018-05-03T15:50:55.137Z,177.00
2018-05-03T15:53:22.675Z,171.07
2018-05-03T15:55:50.223Z,45.60
2018-05-03T15:58:17.764Z,81.73
2018-05-03T16:00:45.299Z,111.43
2018-05-03T16:03:13.627Z,29.07
2018-05-03T16:05:41.179Z,7.90
2018-05-03T16:08:08.707Z,4.97
2018-05-03T16:10:37.076Z,4.63
2018-05-03T16:13:04.611Z,6.00
2018-05-03T16:15:32.135Z,6.67
2018-05-03T16:17:59.655Z,5.97
2018-05-03T16:20:27.334Z,8.37
2018-05-03T16:22:54.890Z,6.73
2018-05-03T16:25:22.439Z,9.37
2018-05-03T16:27:50.725Z,6.30
2018-05-03T16:30:18.316Z,6.83
2018-05-03T16:32:45.847Z,4.53
2018-05-03T16:35:13.374Z,6.87
2018-05-03T16:37:40.917Z,4.67
2018-05-03T16:40:08.441Z,3.73
2018-05-03T16:42:35.981Z,5.87
2018-05-03T16:45:03.515Z,6.93
2018-05-03T16:47:31.037Z,5.57
2018-05-03T16:49:58.574Z,7.27
2018-05-03T16:52:26.905Z,4.70
2018-05-03T16:54:54.413Z,4.80
2018-05-03T16:57:21.943Z,3.77
2018-05-03T16:59:50.249Z,5.97
2018-05-03T17:02:17.822Z,3.23
2018-05-03T17:04:45.421Z,5.00
2018-05-03T17:07:12.897Z,5.83
2018-05-03T17:09:41.203Z,3.83
2018-05-03T17:12:08.769Z,2.37
2018-05-03T17:14:36.332Z,5.20
2018-05-03T17:17:03.878Z,3.60
2018-05-03T17:19:31.456Z,4.23
2018-05-03T17:21:59.029Z,6.03
2018-05-03T17:24:26.600Z,7.43
2018-05-03T17:26:54.130Z,3.77
2018-05-03T17:29:21.746Z,5.17
2018-05-03T17:31:50.055Z,4.70
2018-05-03T17:34:17.615Z,2.73
2018-05-03T17:36:45.163Z,3.77
2018-05-03T17:39:12.920Z,4.13
2018-05-03T17:41:40.469Z,4.03
2018-05-03T17:44:08.071Z,2.97
2018-05-03T17:46:35.620Z,6.23
2018-05-03T17:49:03.151Z,4.20
2018-05-03T17:51:30.659Z,3.90
2018-05-03T17:53:58.193Z,4.30
2018-05-03T17:56:25.759Z,5.23
2018-05-03T17:58:54.057Z,4.80
2018-05-03T18:01:21.609Z,3.73
2018-05-03T18:03:49.184Z,4.13
2018-05-03T18:06:17.579Z,2.80
2018-05-03T18:08:45.149Z,5.07
2018-05-03T18:11:12.696Z,4.13
2018-05-03T18:13:40.231Z,3.97
2018-05-03T18:16:07.914Z,3.83
2018-05-03T18:18:35.363Z,8.67
2018-05-03T18:21:02.901Z,6.10
2018-05-03T18:23:30.451Z,5.57
2018-05-03T18:25:57.983Z,3.83
2018-05-03T18:28:25.513Z,4.17
2018-05-03T18:30:53.046Z,5.27
2018-05-03T18:33:20.587Z,7.23
2018-05-03T18:35:49.031Z,5.23
2018-05-03T18:38:16.559Z,4.87
2018-05-03T18:40:44.847Z,3.57
2018-05-03T18:43:13.095Z,4.03
2018-05-03T18:45:40.633Z,4.33
2018-05-03T18:48:08.160Z,4.03
2018-05-03T18:50:35.693Z,5.17
2018-05-03T18:53:03.967Z,3.43
2018-05-03T18:55:31.496Z,3.23
2018-05-03T18:57:59.012Z,6.03
2018-05-03T19:00:26.706Z,3.77
2018-05-03T19:02:55.098Z,2.33
2018-05-03T19:05:22.653Z,5.53
2018-05-03T19:07:50.166Z,5.10
2018-05-03T19:10:17.766Z,4.93
2018-05-03T19:12:45.245Z,5.00
2018-05-03T19:15:13.581Z,1.70
2018-05-03T19:17:41.138Z,3.30
2018-05-03T19:20:10.153Z,4.47
2018-05-03T19:22:38.497Z,4.73
2018-05-03T19:25:06.017Z,3.43
2018-05-03T19:27:33.546Z,3.33
2018-05-03T19:30:01.118Z,3.10
2018-05-03T19:32:28.658Z,5.13
2018-05-03T19:34:56.216Z,2.70
2018-05-03T19:37:23.788Z,3.93
2018-05-03T19:39:51.307Z,4.33
2018-05-03T19:42:18.897Z,4.70
2018-05-03T19:44:46.486Z,3.57
2018-05-03T19:47:14.025Z,4.13
2018-05-03T19:49:41.588Z,3.83
2018-05-03T19:52:09.092Z,4.57
2018-05-03T19:54:36.607Z,7.47
2018-05-03T19:57:04.133Z,4.37
2018-05-03T19:59:31.675Z,5.27
2018-05-03T20:01:59.347Z,5.43
2018-05-03T20:04:26.878Z,4.47
2018-05-03T20:06:55.014Z,5.73
2018-05-03T20:09:22.557Z,6.20
2018-05-03T20:11:50.092Z,5.70
2018-05-03T20:14:17.620Z,5.63
2018-05-03T20:16:45.157Z,7.57
2018-05-03T20:19:12.701Z,2.93
2018-05-03T20:21:40.245Z,3.53
2018-05-03T20:24:07.791Z,10.77
2018-05-03T20:26:35.301Z,10.50
2018-05-03T20:29:02.831Z,5.30
2018-05-03T20:31:30.367Z,6.73
2018-05-03T20:33:57.885Z,6.37
2018-05-03T20:36:25.405Z,4.23
2018-05-03T20:38:52.966Z,9.07
2018-05-03T20:41:20.500Z,6.43
2018-05-03T20:43:48.007Z,5.80
2018-05-03T20:46:16.339Z,5.10
2018-05-03T20:48:43.900Z,4.73
2018-05-03T20:51:12.195Z,6.50
2018-05-03T20:53:39.971Z,6.93
2018-05-03T20:56:07.543Z,3.53
2018-05-03T20:58:35.894Z,3.00
2018-05-03T21:01:03.424Z,6.03
2018-05-03T21:03:31.130Z,2.83
2018-05-03T21:05:59.479Z,4.10
2018-05-03T21:08:27.092Z,3.50
2018-05-03T21:10:54.677Z,5.13
2018-05-03T21:13:22.869Z,2.53
2018-05-03T21:15:50.415Z,5.93
2018-05-03T21:18:17.979Z,5.03
2018-05-03T21:20:45.616Z,7.70
2018-05-03T21:23:13.174Z,7.80
2018-05-03T21:25:40.683Z,5.53
2018-05-03T21:28:08.205Z,6.10
2018-05-03T21:30:35.717Z,4.77
2018-05-03T21:33:04.059Z,4.20
2018-05-03T21:35:31.584Z,4.97
2018-05-03T21:37:59.104Z,7.73
2018-05-03T21:40:26.623Z,6.63
2018-05-03T21:42:54.148Z,5.60
2018-05-03T21:45:21.666Z,9.90
2018-05-03T21:47:49.167Z,5.67
2018-05-03T21:50:16.692Z,7.13
2018-05-03T21:52:44.215Z,6.10
2018-05-03T21:55:11.754Z,5.93
2018-05-03T21:57:39.278Z,4.17
2018-05-03T22:00:07.585Z,9.40
2018-05-03T22:02:35.112Z,8.60
2018-05-03T22:05:03.409Z,7.77
2018-05-03T22:07:31.006Z,6.83
2018-05-03T22:09:58.540Z,5.47
2018-05-03T22:12:26.057Z,9.73
2018-05-03T22:14:53.578Z,7.13
2018-05-03T22:17:21.087Z,9.47
2018-05-03T22:19:48.617Z,5.97
2018-05-03T22:22:16.154Z,5.40
2018-05-03T22:24:44.679Z,6.30
2018-05-03T22:27:12.247Z,7.07
2018-05-03T22:29:40.519Z,6.87
2018-05-03T22:32:08.801Z,7.87
2018-05-03T22:34:37.074Z,9.20
2018-05-03T22:37:05.341Z,6.63
2018-05-03T22:39:33.619Z,4.70
2018-05-03T22:42:01.147Z,13.40
2018-05-03T22:44:28.664Z,11.57
2018-05-03T22:46:56.179Z,8.90
2018-05-03T22:49:23.769Z,6.83
2018-05-03T22:51:51.295Z,5.67
2018-05-03T22:54:18.815Z,6.60
2018-05-03T22:56:46.332Z,9.77
2018-05-03T22:59:13.861Z,5.70
2018-05-03T23:01:41.383Z,5.93
2018-05-03T23:04:08.909Z,4.97
2018-05-03T23:06:36.431Z,4.70
2018-05-03T23:09:03.999Z,5.80
2018-05-03T23:11:31.519Z,4.27
2018-05-03T23:13:59.023Z,6.30
2018-05-03T23:16:26.527Z,7.73
2018-05-03T23:18:54.025Z,8.30
2018-05-03T23:21:21.588Z,7.37
2018-05-03T23:23:49.129Z,10.80
2018-05-03T23:26:16.650Z,9.50
2018-05-03T23:28:44.187Z,8.17
2018-05-03T23:31:12.466Z,6.93
2018-05-03T23:33:40.739Z,7.10
2018-05-03T23:36:09.018Z,9.30
2018-05-03T23:38:37.309Z,4.77
2018-05-03T23:41:04.818Z,7.17
2018-05-03T23:43:32.326Z,5.23
2018-05-03T23:45:59.838Z,5.20
2018-05-03T23:48:27.367Z,3.80
2018-05-03T23:50:54.880Z,3.73
2018-05-03T23:53:22.393Z,9.33
2018-05-03T23:55:50.020Z,6.60
2018-05-03T23:58:17.554Z,4.50
